sensor_id;sensor_type;location;lat;lon;timestamp;pressure;altitude;pressure_sealevel;temperature;humidity
16834;BME280;8533;48.426;10.868;2023-07-02T00:00:15;95601.47;;;17.29;100.00
16834;BME280;8533;48.426;10.868;2023-07-02T00:02:40;95599.75;;;17.24;100.00
16834;BME280;8533;48.426;10.868;2023-07-02T00:05:06;95572.28;;;17.11;100.00
16834;BME280;8533;48.426;10.868;2023-07-02T00:07:31;95604.25;;;17.24;100.00
16834;BME280;8533;48.426;10.868;2023-07-02T00:09:58;95603.19;;;17.25;100.00
16834;BME280;8533;48.426;10.868;2023-07-02T00:12:23;95600.53;;;17.25;100.00
16834;BME280;8533;48.426;10.868;2023-07-02T00:14:48;95605.19;;;17.28;100.00
16834;BME280;8533;48.426;10.868;2023-07-02T00:17:14;95526.13;;;16.73;100.00
16834;BME280;8533;48.426;10.868;2023-07-02T00:19:40;95566.94;;;17.03;100.00
16834;BME280;8533;48.426;10.868;2023-07-02T00:22:09;95613.75;;;17.25;100.00
16834;BME280;8533;48.426;10.868;2023-07-02T00:24:35;95602.09;;;17.26;100.00
16834;BME280;8533;48.426;10.868;2023-07-02T00:27:01;95543.09;;;16.94;100.00
16834;BME280;8533;48.426;10.868;2023-07-02T00:29:26;95598.38;;;17.27;100.00
16834;BME280;8533;48.426;10.868;2023-07-02T00:31:51;95596.19;;;17.29;100.00
16834;BME280;8533;48.426;10.868;2023-07-02T00:34:18;95444.88;;;16.34;100.00
16834;BME280;8533;48.426;10.868;2023-07-02T00:36:43;95584.69;;;17.25;100.00
16834;BME280;8533;48.426;10.868;2023-07-02T00:39:09;95594.63;;;17.28;100.00
16834;BME280;8533;48.426;10.868;2023-07-02T00:41:34;95556.47;;;16.98;100.00
16834;BME280;8533;48.426;10.868;2023-07-02T00:43:59;95607.84;;;17.28;100.00
16834;BME280;8533;48.426;10.868;2023-07-02T00:46:26;95468.34;;;16.35;100.00
16834;BME280;8533;48.426;10.868;2023-07-02T00:48:55;95606.31;;;17.27;100.00
16834;BME280;8533;48.426;10.868;2023-07-02T00:51:26;95458.00;;;16.25;100.00
16834;BME280;8533;48.426;10.868;2023-07-02T00:53:53;95606.59;;;17.25;100.00
16834;BME280;8533;48.426;10.868;2023-07-02T00:56:20;95603.66;;;17.27;100.00
16834;BME280;8533;48.426;10.868;2023-07-02T00:58:47;95611.28;;;17.28;100.00
16834;BME280;8533;48.426;10.868;2023-07-02T01:01:17;95614.53;;;17.25;100.00
16834;BME280;8533;48.426;10.868;2023-07-02T01:06:25;95558.56;;;16.87;100.00
16834;BME280;8533;48.426;10.868;2023-07-02T01:08:53;95603.41;;;17.14;100.00
16834;BME280;8533;48.426;10.868;2023-07-02T01:11:22;95600.97;;;17.04;100.00
16834;BME280;8533;48.426;10.868;2023-07-02T01:13:49;95601.19;;;17.08;100.00
16834;BME280;8533;48.426;10.868;2023-07-02T01:16:17;95584.41;;;16.90;100.00
16834;BME280;8533;48.426;10.868;2023-07-02T01:18:43;95610.38;;;17.10;100.00
16834;BME280;8533;48.426;10.868;2023-07-02T01:21:08;95606.34;;;17.13;100.00
16834;BME280;8533;48.426;10.868;2023-07-02T01:23:34;95612.91;;;17.15;100.00
16834;BME280;8533;48.426;10.868;2023-07-02T01:25:59;95597.91;;;17.11;100.00
16834;BME280;8533;48.426;10.868;2023-07-02T01:28:34;95641.38;;;17.19;100.00
16834;BME280;8533;48.426;10.868;2023-07-02T01:31:00;95610.75;;;17.17;100.00
16834;BME280;8533;48.426;10.868;2023-07-02T01:33:25;95613.84;;;17.20;100.00
16834;BME280;8533;48.426;10.868;2023-07-02T01:35:50;95603.59;;;17.18;100.00
16834;BME280;8533;48.426;10.868;2023-07-02T01:38:16;95614.19;;;17.18;100.00
16834;BME280;8533;48.426;10.868;2023-07-02T01:40:41;95617.91;;;17.17;100.00
16834;BME280;8533;48.426;10.868;2023-07-02T01:43:06;95623.34;;;17.21;100.00
16834;BME280;8533;48.426;10.868;2023-07-02T01:45:31;95638.13;;;17.22;100.00
16834;BME280;8533;48.426;10.868;2023-07-02T01:47:57;95657.41;;;17.22;100.00
16834;BME280;8533;48.426;10.868;2023-07-02T01:50:22;95646.78;;;17.13;100.00
16834;BME280;8533;48.426;10.868;2023-07-02T01:52:47;95646.97;;;17.17;100.00
16834;BME280;8533;48.426;10.868;2023-07-02T01:55:13;95640.13;;;17.16;100.00
16834;BME280;8533;48.426;10.868;2023-07-02T01:57:38;95648.13;;;17.11;100.00
16834;BME280;8533;48.426;10.868;2023-07-02T02:00:04;95641.53;;;17.00;100.00
16834;BME280;8533;48.426;10.868;2023-07-02T02:02:29;95640.38;;;16.92;100.00
16834;BME280;8533;48.426;10.868;2023-07-02T02:04:54;95657.59;;;16.90;100.00
16834;BME280;8533;48.426;10.868;2023-07-02T02:07:21;95652.41;;;16.85;100.00
16834;BME280;8533;48.426;10.868;2023-07-02T02:09:46;95635.13;;;16.65;100.00
16834;BME280;8533;48.426;10.868;2023-07-02T02:12:12;95650.78;;;16.75;100.00
16834;BME280;8533;48.426;10.868;2023-07-02T02:14:38;95662.91;;;16.76;100.00
16834;BME280;8533;48.426;10.868;2023-07-02T02:17:04;95653.69;;;16.73;100.00
16834;BME280;8533;48.426;10.868;2023-07-02T02:19:29;95649.31;;;16.69;100.00
16834;BME280;8533;48.426;10.868;2023-07-02T02:21:54;95648.53;;;16.68;100.00
16834;BME280;8533;48.426;10.868;2023-07-02T02:24:19;95654.09;;;16.67;100.00
16834;BME280;8533;48.426;10.868;2023-07-02T02:26:45;95657.63;;;16.62;100.00
16834;BME280;8533;48.426;10.868;2023-07-02T02:29:10;95630.13;;;16.36;100.00
16834;BME280;8533;48.426;10.868;2023-07-02T02:31:35;95657.50;;;16.54;100.00
16834;BME280;8533;48.426;10.868;2023-07-02T02:34:01;95654.88;;;16.54;100.00
16834;BME280;8533;48.426;10.868;2023-07-02T02:36:26;95656.72;;;16.53;100.00
16834;BME280;8533;48.426;10.868;2023-07-02T02:38:51;95656.13;;;16.56;100.00
16834;BME280;8533;48.426;10.868;2023-07-02T02:41:16;95665.50;;;16.49;100.00
16834;BME280;8533;48.426;10.868;2023-07-02T02:43:42;95664.06;;;16.42;100.00
16834;BME280;8533;48.426;10.868;2023-07-02T02:46:09;95654.28;;;16.43;100.00
16834;BME280;8533;48.426;10.868;2023-07-02T02:48:34;95657.00;;;16.38;100.00
16834;BME280;8533;48.426;10.868;2023-07-02T02:50:59;95635.31;;;16.27;100.00
16834;BME280;8533;48.426;10.868;2023-07-02T02:53:25;95659.94;;;16.36;100.00
16834;BME280;8533;48.426;10.868;2023-07-02T02:55:50;95656.03;;;16.34;100.00
16834;BME280;8533;48.426;10.868;2023-07-02T02:58:15;95651.81;;;16.33;100.00
16834;BME280;8533;48.426;10.868;2023-07-02T03:00:40;95655.75;;;16.35;100.00
16834;BME280;8533;48.426;10.868;2023-07-02T03:03:09;95658.19;;;16.32;100.00
16834;BME280;8533;48.426;10.868;2023-07-02T03:05:34;95659.16;;;16.36;100.00
16834;BME280;8533;48.426;10.868;2023-07-02T03:08:00;95658.19;;;16.32;100.00
16834;BME280;8533;48.426;10.868;2023-07-02T03:10:25;95619.44;;;16.00;100.00
16834;BME280;8533;48.426;10.868;2023-07-02T03:12:50;95661.69;;;16.27;100.00
16834;BME280;8533;48.426;10.868;2023-07-02T03:15:16;95663.84;;;16.25;100.00
16834;BME280;8533;48.426;10.868;2023-07-02T03:17:42;95656.09;;;16.15;100.00
16834;BME280;8533;48.426;10.868;2023-07-02T03:20:08;95646.44;;;15.97;100.00
16834;BME280;8533;48.426;10.868;2023-07-02T03:22:33;95670.31;;;16.19;100.00
16834;BME280;8533;48.426;10.868;2023-07-02T03:24:59;95596.16;;;15.75;100.00
16834;BME280;8533;48.426;10.868;2023-07-02T03:27:25;95673.50;;;16.16;100.00
16834;BME280;8533;48.426;10.868;2023-07-02T03:29:51;95670.09;;;16.16;100.00
16834;BME280;8533;48.426;10.868;2023-07-02T03:32:16;95668.34;;;16.11;100.00
16834;BME280;8533;48.426;10.868;2023-07-02T03:34:42;95662.06;;;16.07;100.00
16834;BME280;8533;48.426;10.868;2023-07-02T03:37:07;95665.19;;;16.09;100.00
16834;BME280;8533;48.426;10.868;2023-07-02T03:39:33;95669.91;;;16.12;100.00
16834;BME280;8533;48.426;10.868;2023-07-02T03:41:58;95666.19;;;16.13;100.00
16834;BME280;8533;48.426;10.868;2023-07-02T03:44:23;95669.91;;;16.12;100.00
16834;BME280;8533;48.426;10.868;2023-07-02T03:46:48;95673.31;;;16.13;100.00
16834;BME280;8533;48.426;10.868;2023-07-02T03:49:14;95681.72;;;16.15;100.00
16834;BME280;8533;48.426;10.868;2023-07-02T03:51:39;95674.56;;;16.15;100.00
16834;BME280;8533;48.426;10.868;2023-07-02T03:54:04;95677.31;;;16.10;100.00
16834;BME280;8533;48.426;10.868;2023-07-02T03:56:30;95680.25;;;16.22;100.00
16834;BME280;8533;48.426;10.868;2023-07-02T03:58:55;95654.25;;;16.02;100.00
16834;BME280;8533;48.426;10.868;2023-07-02T04:01:21;95680.47;;;16.12;100.00
16834;BME280;8533;48.426;10.868;2023-07-02T04:03:50;95690.00;;;16.08;100.00
16834;BME280;8533;48.426;10.868;2023-07-02T04:06:16;95695.50;;;16.12;100.00
16834;BME280;8533;48.426;10.868;2023-07-02T04:08:42;95655.97;;;15.93;100.00
16834;BME280;8533;48.426;10.868;2023-07-02T04:11:07;95684.66;;;16.13;100.00
16834;BME280;8533;48.426;10.868;2023-07-02T04:13:33;95686.03;;;16.11;100.00
16834;BME280;8533;48.426;10.868;2023-07-02T04:15:58;95668.13;;;16.08;100.00
16834;BME280;8533;48.426;10.868;2023-07-02T04:18:23;95696.19;;;16.17;100.00
16834;BME280;8533;48.426;10.868;2023-07-02T04:20:48;95698.81;;;16.17;100.00
16834;BME280;8533;48.426;10.868;2023-07-02T04:23:14;95704.09;;;16.17;100.00
16834;BME280;8533;48.426;10.868;2023-07-02T04:25:39;95703.31;;;16.17;100.00
16834;BME280;8533;48.426;10.868;2023-07-02T04:28:04;95706.47;;;16.19;100.00
16834;BME280;8533;48.426;10.868;2023-07-02T04:30:30;95710.16;;;16.18;100.00
16834;BME280;8533;48.426;10.868;2023-07-02T04:32:55;95716.22;;;16.18;100.00
16834;BME280;8533;48.426;10.868;2023-07-02T04:35:20;95724.66;;;16.20;100.00
16834;BME280;8533;48.426;10.868;2023-07-02T04:37:45;95676.59;;;15.91;100.00
16834;BME280;8533;48.426;10.868;2023-07-02T04:40:11;95636.09;;;15.68;100.00
16834;BME280;8533;48.426;10.868;2023-07-02T04:42:42;95697.03;;;15.99;100.00
16834;BME280;8533;48.426;10.868;2023-07-02T04:45:11;95736.19;;;16.24;100.00
16834;BME280;8533;48.426;10.868;2023-07-02T04:47:38;95735.28;;;16.15;100.00
16834;BME280;8533;48.426;10.868;2023-07-02T04:50:04;95725.59;;;16.11;100.00
16834;BME280;8533;48.426;10.868;2023-07-02T04:52:30;95732.44;;;16.12;100.00
16834;BME280;8533;48.426;10.868;2023-07-02T04:54:56;95721.47;;;16.05;100.00
16834;BME280;8533;48.426;10.868;2023-07-02T04:57:22;95648.72;;;15.52;100.00
16834;BME280;8533;48.426;10.868;2023-07-02T04:59:47;95738.09;;;16.05;100.00
16834;BME280;8533;48.426;10.868;2023-07-02T05:02:12;95715.19;;;15.87;100.00
16834;BME280;8533;48.426;10.868;2023-07-02T05:04:38;95741.81;;;16.04;100.00
16834;BME280;8533;48.426;10.868;2023-07-02T05:07:04;95742.88;;;16.03;100.00
16834;BME280;8533;48.426;10.868;2023-07-02T05:09:30;95689.31;;;15.70;100.00
16834;BME280;8533;48.426;10.868;2023-07-02T05:11:55;95747.56;;;16.06;100.00
16834;BME280;8533;48.426;10.868;2023-07-02T05:14:20;95745.00;;;16.01;100.00
16834;BME280;8533;48.426;10.868;2023-07-02T05:16:46;95744.91;;;16.06;100.00
16834;BME280;8533;48.426;10.868;2023-07-02T05:19:11;95755.69;;;16.10;100.00
16834;BME280;8533;48.426;10.868;2023-07-02T05:21:36;95733.53;;;15.92;100.00
16834;BME280;8533;48.426;10.868;2023-07-02T05:24:02;95766.03;;;16.06;100.00
16834;BME280;8533;48.426;10.868;2023-07-02T05:26:27;95779.81;;;16.03;100.00
16834;BME280;8533;48.426;10.868;2023-07-02T05:28:53;95777.19;;;16.03;100.00
16834;BME280;8533;48.426;10.868;2023-07-02T05:31:18;95786.44;;;16.00;100.00
16834;BME280;8533;48.426;10.868;2023-07-02T05:33:43;95752.03;;;15.73;100.00
16834;BME280;8533;48.426;10.868;2023-07-02T05:36:09;95772.19;;;16.01;100.00
16834;BME280;8533;48.426;10.868;2023-07-02T05:38:34;95782.59;;;15.93;100.00
16834;BME280;8533;48.426;10.868;2023-07-02T05:40:59;95780.06;;;15.88;100.00
16834;BME280;8533;48.426;10.868;2023-07-02T05:43:24;95787.47;;;15.86;100.00
16834;BME280;8533;48.426;10.868;2023-07-02T05:45:50;95749.84;;;15.61;100.00
16834;BME280;8533;48.426;10.868;2023-07-02T05:48:16;95782.09;;;15.91;100.00
16834;BME280;8533;48.426;10.868;2023-07-02T05:50:42;95790.59;;;15.88;100.00
16834;BME280;8533;48.426;10.868;2023-07-02T05:53:07;95785.81;;;15.90;100.00
16834;BME280;8533;48.426;10.868;2023-07-02T05:55:34;95786.53;;;15.95;100.00
16834;BME280;8533;48.426;10.868;2023-07-02T05:57:59;95786.72;;;15.99;100.00
16834;BME280;8533;48.426;10.868;2023-07-02T06:00:26;95791.94;;;16.04;100.00
16834;BME280;8533;48.426;10.868;2023-07-02T06:02:52;95766.91;;;15.83;100.00
16834;BME280;8533;48.426;10.868;2023-07-02T06:05:17;95791.94;;;16.04;100.00
16834;BME280;8533;48.426;10.868;2023-07-02T06:07:42;95797.13;;;16.09;100.00
16834;BME280;8533;48.426;10.868;2023-07-02T06:10:08;95746.97;;;15.77;100.00
16834;BME280;8533;48.426;10.868;2023-07-02T06:12:34;95798.13;;;16.13;100.00
16834;BME280;8533;48.426;10.868;2023-07-02T06:14:59;95804.47;;;16.12;100.00
16834;BME280;8533;48.426;10.868;2023-07-02T06:17:24;95812.31;;;16.17;100.00
16834;BME280;8533;48.426;10.868;2023-07-02T06:19:50;95813.38;;;16.16;100.00
16834;BME280;8533;48.426;10.868;2023-07-02T06:22:15;95798.00;;;16.05;100.00
16834;BME280;8533;48.426;10.868;2023-07-02T06:24:40;95807.41;;;16.11;100.00
16834;BME280;8533;48.426;10.868;2023-07-02T06:27:06;95812.59;;;16.16;100.00
16834;BME280;8533;48.426;10.868;2023-07-02T06:29:31;95798.84;;;16.00;100.00
16834;BME280;8533;48.426;10.868;2023-07-02T06:31:56;95817.88;;;16.16;100.00
16834;BME280;8533;48.426;10.868;2023-07-02T06:34:21;95822.84;;;16.17;100.00
16834;BME280;8533;48.426;10.868;2023-07-02T06:36:47;95782.09;;;15.91;100.00
16834;BME280;8533;48.426;10.868;2023-07-02T06:39:13;95819.53;;;16.12;100.00
16834;BME280;8533;48.426;10.868;2023-07-02T06:41:38;95837.78;;;16.08;100.00
16834;BME280;8533;48.426;10.868;2023-07-02T06:44:04;95819.59;;;16.07;100.00
16834;BME280;8533;48.426;10.868;2023-07-02T06:46:29;95817.44;;;16.09;100.00
16834;BME280;8533;48.426;10.868;2023-07-02T06:48:55;95821.16;;;16.08;100.00
16834;BME280;8533;48.426;10.868;2023-07-02T06:51:21;95835.06;;;16.13;100.00
16834;BME280;8533;48.426;10.868;2023-07-02T06:53:47;95833.69;;;16.16;100.00
16834;BME280;8533;48.426;10.868;2023-07-02T06:56:13;95838.19;;;16.15;100.00
16834;BME280;8533;48.426;10.868;2023-07-02T06:58:44;95825.28;;;16.14;100.00
16834;BME280;8533;48.426;10.868;2023-07-02T07:01:10;95777.00;;;15.81;100.00
16834;BME280;8533;48.426;10.868;2023-07-02T07:03:35;95837.63;;;16.18;100.00
16834;BME280;8533;48.426;10.868;2023-07-02T07:06:01;95840.81;;;16.15;100.00
16834;BME280;8533;48.426;10.868;2023-07-02T07:08:26;95837.91;;;16.17;100.00
16834;BME280;8533;48.426;10.868;2023-07-02T07:10:52;95791.06;;;15.90;100.00
16834;BME280;8533;48.426;10.868;2023-07-02T07:13:17;95792.94;;;15.89;100.00
16834;BME280;8533;48.426;10.868;2023-07-02T07:15:42;95849.09;;;16.27;100.00
16834;BME280;8533;48.426;10.868;2023-07-02T07:18:09;95847.25;;;16.28;100.00
16834;BME280;8533;48.426;10.868;2023-07-02T07:20:34;95841.38;;;16.31;100.00
16834;BME280;8533;48.426;10.868;2023-07-02T07:22:59;95864.06;;;16.32;100.00
16834;BME280;8533;48.426;10.868;2023-07-02T07:25:25;95852.16;;;16.34;100.00
16834;BME280;8533;48.426;10.868;2023-07-02T07:27:51;95847.63;;;16.54;100.00
16834;BME280;8533;48.426;10.868;2023-07-02T07:30:16;95790.94;;;16.32;100.00
16834;BME280;8533;48.426;10.868;2023-07-02T07:32:47;95841.56;;;16.86;100.00
16834;BME280;8533;48.426;10.868;2023-07-02T07:35:12;95769.00;;;16.51;100.00
16834;BME280;8533;48.426;10.868;2023-07-02T07:37:38;95837.75;;;16.92;100.00
16834;BME280;8533;48.426;10.868;2023-07-02T07:40:03;95800.56;;;17.02;100.00
16834;BME280;8533;48.426;10.868;2023-07-02T07:42:31;95843.94;;;17.42;100.00
16834;BME280;8533;48.426;10.868;2023-07-02T07:44:56;95829.94;;;17.41;100.00
16834;BME280;8533;48.426;10.868;2023-07-02T07:47:21;95827.75;;;17.71;100.00
16834;BME280;8533;48.426;10.868;2023-07-02T07:49:46;95840.56;;;17.77;100.00
16834;BME280;8533;48.426;10.868;2023-07-02T07:52:12;95837.75;;;17.74;100.00
16834;BME280;8533;48.426;10.868;2023-07-02T07:54:37;95840.84;;;17.76;100.00
16834;BME280;8533;48.426;10.868;2023-07-02T07:57:04;95839.91;;;17.72;100.00
16834;BME280;8533;48.426;10.868;2023-07-02T07:59:29;95818.06;;;17.39;100.00
16834;BME280;8533;48.426;10.868;2023-07-02T08:01:54;95850.59;;;17.67;100.00
16834;BME280;8533;48.426;10.868;2023-07-02T08:04:20;95856.25;;;17.60;100.00
16834;BME280;8533;48.426;10.868;2023-07-02T08:06:45;95815.84;;;17.32;100.00
16834;BME280;8533;48.426;10.868;2023-07-02T08:09:10;95845.88;;;17.50;100.00
16834;BME280;8533;48.426;10.868;2023-07-02T08:11:36;95838.16;;;17.67;100.00
16834;BME280;8533;48.426;10.868;2023-07-02T08:14:01;95849.75;;;17.93;100.00
16834;BME280;8533;48.426;10.868;2023-07-02T08:16:26;95829.91;;;18.05;100.00
16834;BME280;8533;48.426;10.868;2023-07-02T08:18:52;95847.63;;;18.40;100.00
16834;BME280;8533;48.426;10.868;2023-07-02T08:21:17;95849.06;;;18.46;100.00
16834;BME280;8533;48.426;10.868;2023-07-02T08:23:43;95848.97;;;18.82;100.00
16834;BME280;8533;48.426;10.868;2023-07-02T08:26:09;95840.34;;;18.99;100.00
16834;BME280;8533;48.426;10.868;2023-07-02T08:28:36;95821.28;;;18.88;100.00
16834;BME280;8533;48.426;10.868;2023-07-02T08:31:01;95802.22;;;18.78;99.15
16834;BME280;8533;48.426;10.868;2023-07-02T08:33:26;95848.81;;;18.79;100.00
16834;BME280;8533;48.426;10.868;2023-07-02T08:35:52;95845.34;;;18.70;100.00
16834;BME280;8533;48.426;10.868;2023-07-02T08:38:17;95839.25;;;18.69;100.00
16834;BME280;8533;48.426;10.868;2023-07-02T08:40:42;95852.69;;;19.03;99.46
16834;BME280;8533;48.426;10.868;2023-07-02T08:43:07;95841.72;;;18.88;100.00
16834;BME280;8533;48.426;10.868;2023-07-02T08:45:33;95848.38;;;19.16;95.87
16834;BME280;8533;48.426;10.868;2023-07-02T08:47:58;95846.50;;;19.65;91.75
16834;BME280;8533;48.426;10.868;2023-07-02T08:50:24;95847.47;;;19.69;89.36
16834;BME280;8533;48.426;10.868;2023-07-02T08:52:49;95848.22;;;19.52;91.41
16834;BME280;8533;48.426;10.868;2023-07-02T08:55:15;95818.94;;;19.35;87.89
16834;BME280;8533;48.426;10.868;2023-07-02T08:57:47;95846.66;;;19.60;90.61
16834;BME280;8533;48.426;10.868;2023-07-02T09:00:14;95848.03;;;19.49;88.76
16834;BME280;8533;48.426;10.868;2023-07-02T09:02:40;95846.25;;;19.35;87.20
16834;BME280;8533;48.426;10.868;2023-07-02T09:05:05;95684.16;;;18.32;86.46
16834;BME280;8533;48.426;10.868;2023-07-02T09:07:31;95841.50;;;19.55;87.50
16834;BME280;8533;48.426;10.868;2023-07-02T09:09:56;95840.91;;;19.75;85.29
16834;BME280;8533;48.426;10.868;2023-07-02T09:12:26;95844.69;;;19.83;83.77
16834;BME280;8533;48.426;10.868;2023-07-02T09:15:00;95772.28;;;19.25;82.52
16834;BME280;8533;48.426;10.868;2023-07-02T09:17:32;95715.41;;;18.92;82.23
16834;BME280;8533;48.426;10.868;2023-07-02T09:19:59;95844.84;;;19.77;83.02
16834;BME280;8533;48.426;10.868;2023-07-02T09:22:29;95848.59;;;19.94;82.15
16834;BME280;8533;48.426;10.868;2023-07-02T09:24:58;95842.81;;;20.09;80.37
16834;BME280;8533;48.426;10.868;2023-07-02T09:27:38;95849.06;;;20.04;82.37
16834;BME280;8533;48.426;10.868;2023-07-02T09:30:14;95868.47;;;20.39;78.56
16834;BME280;8533;48.426;10.868;2023-07-02T09:32:43;95820.31;;;20.32;76.66
16834;BME280;8533;48.426;10.868;2023-07-02T09:35:12;95721.31;;;19.80;79.03
16834;BME280;8533;48.426;10.868;2023-07-02T09:37:38;95847.78;;;20.79;75.09
16834;BME280;8533;48.426;10.868;2023-07-02T09:40:07;95792.16;;;20.57;74.77
16834;BME280;8533;48.426;10.868;2023-07-02T09:42:35;95854.66;;;20.80;75.02
16834;BME280;8533;48.426;10.868;2023-07-02T09:45:02;95845.41;;;20.86;74.46
16834;BME280;8533;48.426;10.868;2023-07-02T09:47:29;95793.25;;;21.03;71.39
16834;BME280;8533;48.426;10.868;2023-07-02T09:49:58;95718.69;;;20.90;69.09
16834;BME280;8533;48.426;10.868;2023-07-02T09:52:25;95819.13;;;22.11;67.44
16834;BME280;8533;48.426;10.868;2023-07-02T09:54:51;95847.53;;;22.61;63.25
16834;BME280;8533;48.426;10.868;2023-07-02T09:57:16;95852.38;;;22.26;64.64
16834;BME280;8533;48.426;10.868;2023-07-02T09:59:42;95846.06;;;22.30;64.03
16834;BME280;8533;48.426;10.868;2023-07-02T10:02:09;95841.84;;;22.29;63.48
16834;BME280;8533;48.426;10.868;2023-07-02T10:04:47;95835.16;;;22.56;65.89
16834;BME280;8533;48.426;10.868;2023-07-02T10:07:13;95835.13;;;22.44;65.45
16834;BME280;8533;48.426;10.868;2023-07-02T10:09:50;95839.00;;;22.46;64.82
16834;BME280;8533;48.426;10.868;2023-07-02T10:12:26;95844.63;;;22.33;63.47
16834;BME280;8533;48.426;10.868;2023-07-02T10:14:54;95847.72;;;22.02;63.21
16834;BME280;8533;48.426;10.868;2023-07-02T10:17:40;95848.44;;;21.82;64.28
16834;BME280;8533;48.426;10.868;2023-07-02T10:20:07;95853.28;;;22.09;63.51
16834;BME280;8533;48.426;10.868;2023-07-02T10:22:46;95848.78;;;22.22;63.57
16834;BME280;8533;48.426;10.868;2023-07-02T10:25:12;95846.53;;;22.65;61.79
16834;BME280;8533;48.426;10.868;2023-07-02T10:27:48;95836.09;;;22.60;61.43
16834;BME280;8533;48.426;10.868;2023-07-02T10:30:13;95840.19;;;22.91;60.58
16834;BME280;8533;48.426;10.868;2023-07-02T10:32:39;95835.06;;;22.98;59.69
16834;BME280;8533;48.426;10.868;2023-07-02T10:35:15;95778.16;;;23.06;60.03
16834;BME280;8533;48.426;10.868;2023-07-02T10:37:40;95830.34;;;23.40;58.79
16834;BME280;8533;48.426;10.868;2023-07-02T10:40:06;95789.38;;;22.87;59.07
16834;BME280;8533;48.426;10.868;2023-07-02T10:42:32;95793.13;;;22.74;60.20
16834;BME280;8533;48.426;10.868;2023-07-02T10:44:59;95785.13;;;22.41;62.55
16834;BME280;8533;48.426;10.868;2023-07-02T10:47:24;95817.09;;;23.07;62.88
16834;BME280;8533;48.426;10.868;2023-07-02T10:49:50;95818.09;;;23.63;59.71
16834;BME280;8533;48.426;10.868;2023-07-02T10:52:15;95817.66;;;23.61;58.71
16834;BME280;8533;48.426;10.868;2023-07-02T10:54:46;95820.53;;;23.68;59.15
16834;BME280;8533;48.426;10.868;2023-07-02T10:57:18;95818.41;;;24.26;56.59
16834;BME280;8533;48.426;10.868;2023-07-02T10:59:47;95802.06;;;24.71;56.72
16834;BME280;8533;48.426;10.868;2023-07-02T11:02:13;95808.34;;;24.35;57.83
16834;BME280;8533;48.426;10.868;2023-07-02T11:04:39;95816.19;;;23.76;61.12
16834;BME280;8533;48.426;10.868;2023-07-02T11:07:04;95807.84;;;23.04;64.51
16834;BME280;8533;48.426;10.868;2023-07-02T11:09:30;95818.19;;;22.94;66.42
16834;BME280;8533;48.426;10.868;2023-07-02T11:11:56;95799.72;;;23.37;67.28
16834;BME280;8533;48.426;10.868;2023-07-02T11:14:29;95787.72;;;23.19;65.62
16834;BME280;8533;48.426;10.868;2023-07-02T11:16:55;95792.97;;;23.15;67.68
16834;BME280;8533;48.426;10.868;2023-07-02T11:19:20;95813.19;;;22.92;70.73
16834;BME280;8533;48.426;10.868;2023-07-02T11:21:56;95812.63;;;22.66;70.91
16834;BME280;8533;48.426;10.868;2023-07-02T11:24:31;95840.75;;;22.63;74.13
16834;BME280;8533;48.426;10.868;2023-07-02T11:26:58;95805.94;;;22.93;73.71
16834;BME280;8533;48.426;10.868;2023-07-02T11:29:24;95796.59;;;22.74;69.36
16834;BME280;8533;48.426;10.868;2023-07-02T11:31:50;95805.91;;;22.48;71.46
16834;BME280;8533;48.426;10.868;2023-07-02T11:34:17;95808.56;;;22.35;72.28
16834;BME280;8533;48.426;10.868;2023-07-02T11:36:42;95810.22;;;22.40;71.93
16834;BME280;8533;48.426;10.868;2023-07-02T11:39:08;95804.34;;;22.79;69.05
16834;BME280;8533;48.426;10.868;2023-07-02T11:41:41;95787.94;;;23.38;65.19
16834;BME280;8533;48.426;10.868;2023-07-02T11:44:07;95798.75;;;23.66;66.17
16834;BME280;8533;48.426;10.868;2023-07-02T11:46:33;95804.28;;;23.12;69.07
16834;BME280;8533;48.426;10.868;2023-07-02T11:49:02;95814.66;;;22.69;70.96
16834;BME280;8533;48.426;10.868;2023-07-02T11:51:29;95795.31;;;22.27;73.99
16834;BME280;8533;48.426;10.868;2023-07-02T11:53:55;95814.56;;;22.12;75.56
16834;BME280;8533;48.426;10.868;2023-07-02T11:56:20;95808.84;;;22.01;76.44
16834;BME280;8533;48.426;10.868;2023-07-02T11:58:45;95809.38;;;22.81;74.46
16834;BME280;8533;48.426;10.868;2023-07-02T12:01:11;95798.53;;;23.35;68.98
16834;BME280;8533;48.426;10.868;2023-07-02T12:03:36;95786.38;;;23.74;66.73
16834;BME280;8533;48.426;10.868;2023-07-02T12:06:01;95789.06;;;24.02;65.10
16834;BME280;8533;48.426;10.868;2023-07-02T12:08:26;95783.78;;;23.89;62.98
16834;BME280;8533;48.426;10.868;2023-07-02T12:10:52;95782.47;;;23.71;64.94
16834;BME280;8533;48.426;10.868;2023-07-02T12:13:17;95751.81;;;23.16;65.93
16834;BME280;8533;48.426;10.868;2023-07-02T12:15:43;95746.25;;;22.85;66.67
16834;BME280;8533;48.426;10.868;2023-07-02T12:18:09;95760.69;;;22.96;68.93
16834;BME280;8533;48.426;10.868;2023-07-02T12:20:34;95786.47;;;23.77;65.62
16834;BME280;8533;48.426;10.868;2023-07-02T12:23:00;95779.47;;;24.13;63.66
16834;BME280;8533;48.426;10.868;2023-07-02T12:25:25;95788.00;;;23.90;64.78
16834;BME280;8533;48.426;10.868;2023-07-02T12:27:50;95775.25;;;23.47;63.13
16834;BME280;8533;48.426;10.868;2023-07-02T12:30:16;95757.59;;;23.31;64.24
16834;BME280;8533;48.426;10.868;2023-07-02T12:32:43;95779.59;;;23.40;63.95
16834;BME280;8533;48.426;10.868;2023-07-02T12:35:09;95777.91;;;23.72;64.60
16834;BME280;8533;48.426;10.868;2023-07-02T12:37:34;95774.59;;;24.03;64.25
16834;BME280;8533;48.426;10.868;2023-07-02T12:39:59;95770.03;;;24.75;60.90
16834;BME280;8533;48.426;10.868;2023-07-02T12:42:25;95777.25;;;25.02;57.26
16834;BME280;8533;48.426;10.868;2023-07-02T12:44:50;95765.00;;;24.73;56.82
16834;BME280;8533;48.426;10.868;2023-07-02T12:47:15;95768.69;;;24.37;56.92
16834;BME280;8533;48.426;10.868;2023-07-02T12:49:41;95763.41;;;23.85;60.06